createdAt,value
2022-12-15T00:00:00.508Z,6.3
2022-12-15T00:01:00.969Z,6.3
2022-12-15T00:02:00.551Z,6.3
2022-12-15T00:03:00.715Z,6.3
2022-12-15T00:04:00.503Z,6.3
2022-12-15T00:05:00.484Z,6.3
2022-12-15T00:06:00.586Z,6.3
2022-12-15T00:07:00.802Z,6.3
2022-12-15T00:08:00.524Z,6.3
2022-12-15T00:09:00.549Z,6.3
2022-12-15T00:10:00.488Z,6.3
2022-12-15T00:11:00.690Z,6.3
2022-12-15T00:12:00.429Z,6.2
2022-12-15T00:13:00.736Z,6.2
2022-12-15T00:14:00.485Z,6.2
2022-12-15T00:15:00.450Z,6.3
2022-12-15T00:16:00.556Z,6.2
2022-12-15T00:17:00.446Z,6.3
2022-12-15T00:18:00.485Z,6.3
2022-12-15T00:19:00.664Z,6.3
2022-12-15T00:20:00.454Z,6.3
2022-12-15T00:21:00.480Z,6.2
2022-12-15T00:22:00.422Z,6.2
2022-12-15T00:23:00.452Z,6.2
2022-12-15T00:24:00.490Z,6.2
2022-12-15T00:25:00.566Z,6.2
2022-12-15T00:26:00.500Z,6.2
2022-12-15T00:27:00.454Z,6.3
2022-12-15T00:28:00.456Z,6.3
2022-12-15T00:29:00.475Z,6.3
2022-12-15T00:30:00.483Z,6.3
2022-12-15T00:31:02.323Z,6.3
2022-12-15T00:32:00.574Z,6.3
2022-12-15T00:33:00.447Z,6.3
2022-12-15T00:34:00.459Z,6.3
2022-12-15T00:35:00.474Z,6.3
2022-12-15T00:36:00.459Z,6.4
2022-12-15T00:37:00.669Z,6.4
2022-12-15T00:38:00.533Z,6.4
2022-12-15T00:39:03.520Z,6.4
2022-12-15T00:40:00.470Z,6.4
2022-12-15T00:41:00.611Z,6.4
2022-12-15T00:42:00.615Z,6.4
2022-12-15T00:43:00.644Z,6.4
2022-12-15T00:44:00.469Z,6.4
2022-12-15T00:45:00.540Z,6.4
2022-12-15T00:46:00.500Z,6.4
2022-12-15T00:47:00.567Z,6.4
2022-12-15T00:48:00.512Z,6.3
2022-12-15T00:49:00.617Z,6.3
2022-12-15T00:50:00.427Z,6.3
2022-12-15T00:51:00.476Z,6.3
2022-12-15T00:52:00.423Z,6.2
2022-12-15T00:53:00.451Z,6.2
2022-12-15T00:54:00.451Z,6.2
2022-12-15T00:55:00.547Z,6.2
2022-12-15T00:56:00.487Z,6.2
2022-12-15T00:57:00.504Z,6.2
2022-12-15T00:58:00.472Z,6.2
2022-12-15T00:59:00.442Z,6.2
2022-12-15T01:00:00.451Z,6.2
2022-12-15T01:01:00.580Z,6.2
2022-12-15T01:02:00.659Z,6.2
2022-12-15T01:03:00.729Z,6.2
2022-12-15T01:04:00.548Z,6.2
2022-12-15T01:05:00.507Z,6.1
2022-12-15T01:06:00.456Z,6.1
2022-12-15T01:07:00.669Z,6.1
2022-12-15T01:08:00.457Z,6.1
2022-12-15T01:09:00.484Z,6.1
2022-12-15T01:10:00.491Z,6.1
2022-12-15T01:11:00.454Z,6.1
2022-12-15T01:12:00.593Z,6.1
2022-12-15T01:13:00.769Z,6.1
2022-12-15T01:14:00.451Z,6.1
2022-12-15T01:15:00.450Z,6.1
2022-12-15T01:16:00.528Z,6.1
2022-12-15T01:17:00.452Z,6.1
2022-12-15T01:18:00.478Z,6.1
2022-12-15T01:19:00.561Z,6.1
2022-12-15T01:20:00.447Z,6.1
2022-12-15T01:21:00.479Z,6.1
2022-12-15T01:22:00.529Z,6.1
2022-12-15T01:23:00.456Z,6.1
2022-12-15T01:24:00.447Z,6.1
2022-12-15T01:25:00.718Z,6.1
2022-12-15T01:26:00.472Z,6.1
2022-12-15T01:27:00.573Z,6.1
2022-12-15T01:28:00.424Z,6.1
2022-12-15T01:29:00.465Z,6.1
2022-12-15T01:30:00.834Z,6.2
2022-12-15T01:31:00.698Z,6.2
2022-12-15T01:32:00.499Z,6.1
2022-12-15T01:33:00.899Z,6.2
2022-12-15T01:34:00.983Z,6.1
2022-12-15T01:35:00.670Z,6.2
2022-12-15T01:36:00.482Z,6.2
2022-12-15T01:37:00.609Z,6.2
2022-12-15T01:38:00.942Z,6.2
2022-12-15T01:39:00.464Z,6.2
2022-12-15T01:40:00.512Z,6.2
2022-12-15T01:41:00.467Z,6.2
2022-12-15T01:42:00.518Z,6.2
2022-12-15T01:43:00.648Z,6.2
2022-12-15T01:44:00.478Z,6.3
2022-12-15T01:45:00.483Z,6.3
2022-12-15T01:46:00.446Z,6.3
2022-12-15T01:47:00.537Z,6.3
2022-12-15T01:48:00.482Z,6.3
2022-12-15T01:49:00.569Z,6.3
2022-12-15T01:50:00.445Z,6.3
2022-12-15T01:51:00.482Z,6.3
2022-12-15T01:52:00.494Z,6.3
2022-12-15T01:53:00.488Z,6.3
2022-12-15T01:54:00.450Z,6.3
2022-12-15T01:55:00.695Z,6.3
2022-12-15T01:56:00.448Z,6.3
2022-12-15T01:57:00.706Z,6.3
2022-12-15T01:58:00.481Z,6.3
2022-12-15T01:59:00.454Z,6.3
2022-12-15T02:00:00.448Z,6.2
2022-12-15T02:01:00.647Z,6.2
2022-12-15T02:02:00.687Z,6.2
2022-12-15T02:03:00.614Z,6.3
2022-12-15T02:04:00.474Z,6.3
2022-12-15T02:05:00.447Z,6.3
2022-12-15T02:06:00.423Z,6.3
2022-12-15T02:07:00.578Z,6.3
2022-12-15T02:08:00.428Z,6.3
2022-12-15T02:09:00.447Z,6.3
2022-12-15T02:10:00.426Z,6.3
2022-12-15T02:11:00.455Z,6.3
2022-12-15T02:12:00.616Z,6.3
2022-12-15T02:13:00.789Z,6.3
2022-12-15T02:14:00.454Z,6.3
2022-12-15T02:15:00.446Z,6.3
2022-12-15T02:16:00.496Z,6.3
2022-12-15T02:17:00.483Z,6.3
2022-12-15T02:18:00.469Z,6.3
2022-12-15T02:19:00.602Z,6.4
2022-12-15T02:20:00.525Z,6.3
2022-12-15T02:21:00.455Z,6.3
2022-12-15T02:22:00.447Z,6.3
2022-12-15T02:23:00.433Z,6.3
2022-12-15T02:24:00.420Z,6.3
2022-12-15T02:25:00.567Z,6.3
2022-12-15T02:26:00.455Z,6.3
2022-12-15T02:27:00.479Z,6.3
2022-12-15T02:28:00.480Z,6.4
2022-12-15T02:29:00.445Z,6.4
2022-12-15T02:30:00.452Z,6.3
2022-12-15T02:31:00.663Z,6.4
2022-12-15T02:32:00.582Z,6.4
2022-12-15T02:33:00.486Z,6.4
2022-12-15T02:34:00.564Z,6.4
2022-12-15T02:35:00.506Z,6.4
2022-12-15T02:36:00.509Z,6.3
2022-12-15T02:37:00.578Z,6.3
2022-12-15T02:38:00.452Z,6.3
2022-12-15T02:39:00.463Z,6.3
2022-12-15T02:40:00.493Z,6.3
2022-12-15T02:41:00.454Z,6.3
2022-12-15T02:42:00.610Z,6.3
2022-12-15T02:43:00.671Z,6.3
2022-12-15T02:44:00.512Z,6.3
2022-12-15T02:45:00.458Z,6.3
2022-12-15T02:46:00.538Z,6.3
2022-12-15T02:47:00.525Z,6.3
2022-12-15T02:48:00.425Z,6.3
2022-12-15T02:49:00.543Z,6.3
2022-12-15T02:50:00.423Z,6.3
2022-12-15T02:51:00.436Z,6.3
2022-12-15T02:52:00.481Z,6.2
2022-12-15T02:53:00.513Z,6.2
2022-12-15T02:54:00.483Z,6.2
2022-12-15T02:55:00.566Z,6.2
2022-12-15T02:56:00.438Z,6.2
2022-12-15T02:57:00.487Z,6.1
2022-12-15T02:58:00.503Z,6.1
2022-12-15T02:59:00.446Z,6.1
2022-12-15T03:00:00.447Z,6.1
2022-12-15T03:01:00.635Z,6.1
2022-12-15T03:02:00.653Z,6.1
2022-12-15T03:03:00.657Z,6.0
2022-12-15T03:04:00.454Z,6.0
2022-12-15T03:05:00.452Z,6.0
2022-12-15T03:06:00.484Z,6.0
2022-12-15T03:07:01.414Z,6.0
2022-12-15T03:08:00.447Z,6.0
2022-12-15T03:09:00.419Z,6.0
2022-12-15T03:10:00.481Z,6.0
2022-12-15T03:11:00.449Z,6.0
2022-12-15T03:12:00.480Z,6.1
2022-12-15T03:13:00.740Z,6.0
2022-12-15T03:14:00.453Z,6.1
2022-12-15T03:15:00.457Z,6.1
2022-12-15T03:16:00.567Z,6.1
2022-12-15T03:17:00.491Z,6.1
2022-12-15T03:18:00.470Z,6.1
2022-12-15T03:19:00.615Z,6.1
2022-12-15T03:20:00.515Z,6.1
2022-12-15T03:21:00.491Z,6.1
2022-12-15T03:22:00.426Z,6.1
2022-12-15T03:23:00.479Z,6.0
2022-12-15T03:24:00.450Z,6.0
2022-12-15T03:25:00.568Z,5.9
2022-12-15T03:26:00.450Z,5.9
2022-12-15T03:27:00.435Z,5.9
2022-12-15T03:28:00.610Z,5.9
2022-12-15T03:29:00.454Z,5.9
2022-12-15T03:30:00.487Z,5.8
2022-12-15T03:31:00.661Z,5.7
2022-12-15T03:32:00.548Z,5.7
2022-12-15T03:33:00.417Z,5.6
2022-12-15T03:34:00.455Z,5.6
2022-12-15T03:35:00.500Z,5.6
2022-12-15T03:36:00.452Z,5.5
2022-12-15T03:37:00.598Z,5.4
2022-12-15T03:38:00.454Z,5.4
2022-12-15T03:39:00.439Z,5.4
2022-12-15T03:40:00.457Z,5.3
2022-12-15T03:41:00.482Z,5.3
2022-12-15T03:42:00.485Z,5.2
2022-12-15T03:43:00.563Z,5.2
2022-12-15T03:44:00.611Z,5.2
2022-12-15T03:45:00.457Z,5.1
2022-12-15T03:46:00.595Z,5.1
2022-12-15T03:47:03.462Z,5.1
2022-12-15T03:48:00.516Z,5.1
2022-12-15T03:49:00.644Z,5.1
2022-12-15T03:50:00.513Z,5.1
2022-12-15T03:51:00.442Z,5.1
2022-12-15T03:52:00.477Z,5.1
2022-12-15T03:53:00.508Z,5.1
2022-12-15T03:54:00.431Z,5.1
2022-12-15T03:55:00.589Z,5.0
2022-12-15T03:56:00.476Z,5.1
2022-12-15T03:57:00.422Z,5.1
2022-12-15T03:58:00.456Z,5.1
2022-12-15T03:59:00.524Z,5.1
2022-12-15T04:00:00.555Z,5.1
2022-12-15T04:01:00.744Z,5.1
2022-12-15T04:02:00.711Z,5.1
2022-12-15T04:03:00.538Z,5.2
2022-12-15T04:04:01.564Z,5.2
2022-12-15T04:05:00.476Z,5.2
2022-12-15T04:06:00.449Z,5.2
2022-12-15T04:07:00.582Z,5.2
2022-12-15T04:08:00.420Z,5.2
2022-12-15T04:09:00.474Z,5.3
2022-12-15T04:10:00.446Z,5.3
2022-12-15T04:11:00.419Z,5.3
2022-12-15T04:12:00.424Z,5.3
2022-12-15T04:13:00.559Z,5.3
2022-12-15T04:14:00.462Z,5.3
2022-12-15T04:15:00.587Z,5.3
2022-12-15T04:16:00.425Z,5.3
2022-12-15T04:17:00.506Z,5.3
2022-12-15T04:18:00.424Z,5.3
2022-12-15T04:19:00.567Z,5.3
2022-12-15T04:20:00.451Z,5.4
2022-12-15T04:21:00.419Z,5.4
2022-12-15T04:22:00.457Z,5.4
2022-12-15T04:23:00.487Z,5.5
2022-12-15T04:24:00.454Z,5.5
2022-12-15T04:25:00.566Z,5.5
2022-12-15T04:26:00.429Z,5.5
2022-12-15T04:27:00.502Z,5.6
2022-12-15T04:28:01.815Z,5.6
2022-12-15T04:29:00.451Z,5.6
2022-12-15T04:30:00.557Z,5.7
2022-12-15T04:31:00.604Z,5.7
2022-12-15T04:32:00.498Z,5.8
2022-12-15T04:33:00.486Z,5.8
2022-12-15T04:34:00.460Z,5.8
2022-12-15T04:35:00.507Z,5.9
2022-12-15T04:36:00.516Z,5.9
2022-12-15T04:37:00.754Z,6.0
2022-12-15T04:38:00.463Z,6.0
2022-12-15T04:39:00.509Z,6.1
2022-12-15T04:40:00.535Z,6.1
2022-12-15T04:41:00.503Z,6.1
2022-12-15T04:42:00.496Z,6.2
2022-12-15T04:43:00.644Z,6.2
2022-12-15T04:44:00.475Z,6.2
2022-12-15T04:45:00.655Z,6.2
2022-12-15T04:46:00.506Z,6.3
2022-12-15T04:47:00.430Z,6.3
2022-12-15T04:48:00.427Z,6.3
2022-12-15T04:49:00.740Z,6.4
2022-12-15T04:50:00.450Z,6.4
2022-12-15T04:51:00.452Z,6.4
2022-12-15T04:52:00.429Z,6.5
2022-12-15T04:53:00.422Z,6.5
2022-12-15T04:54:00.454Z,6.5
2022-12-15T04:55:00.582Z,6.6
2022-12-15T04:56:00.459Z,6.6
2022-12-15T04:57:00.425Z,6.6
2022-12-15T04:58:00.428Z,6.7
2022-12-15T04:59:00.581Z,6.7
2022-12-15T05:00:00.545Z,6.7
2022-12-15T05:01:00.733Z,6.8
2022-12-15T05:02:00.645Z,6.8
2022-12-15T05:03:00.456Z,6.8
2022-12-15T05:04:00.492Z,6.8
2022-12-15T05:05:00.456Z,6.9
2022-12-15T05:06:00.455Z,6.9
2022-12-15T05:07:00.685Z,6.9
2022-12-15T05:08:00.422Z,6.9
2022-12-15T05:09:00.485Z,6.9
2022-12-15T05:10:03.232Z,7.0
2022-12-15T05:11:00.424Z,7.0
2022-12-15T05:12:00.467Z,7.1
2022-12-15T05:13:00.655Z,7.1
2022-12-15T05:14:00.448Z,7.1
2022-12-15T05:15:00.561Z,7.1
2022-12-15T05:16:00.632Z,7.1
2022-12-15T05:17:00.469Z,7.1
2022-12-15T05:18:00.455Z,7.2
2022-12-15T05:19:00.638Z,7.2
2022-12-15T05:20:00.483Z,7.2
2022-12-15T05:21:00.528Z,7.2
2022-12-15T05:22:00.479Z,7.2
2022-12-15T05:23:00.497Z,7.2
2022-12-15T05:24:00.443Z,7.2
2022-12-15T05:25:00.603Z,7.2
2022-12-15T05:26:00.482Z,7.2
2022-12-15T05:27:00.451Z,7.2
2022-12-15T05:28:00.478Z,7.2
2022-12-15T05:29:00.428Z,7.2
2022-12-15T05:30:00.650Z,7.2
2022-12-15T05:31:00.591Z,7.2
2022-12-15T05:32:00.460Z,7.3
2022-12-15T05:33:00.482Z,7.3
2022-12-15T05:34:05.083Z,7.3
2022-12-15T05:35:00.446Z,7.3
2022-12-15T05:36:00.425Z,7.3
2022-12-15T05:37:00.583Z,7.4
2022-12-15T05:38:00.478Z,7.4
2022-12-15T05:39:00.448Z,7.4
2022-12-15T05:40:00.484Z,7.4
2022-12-15T05:41:00.481Z,7.4
2022-12-15T05:42:00.488Z,7.5
2022-12-15T05:43:00.615Z,7.5
2022-12-15T05:44:00.437Z,7.5
2022-12-15T05:45:00.575Z,7.6
2022-12-15T05:46:00.525Z,7.6
2022-12-15T05:47:00.457Z,7.6
2022-12-15T05:48:00.467Z,7.6
2022-12-15T05:49:00.545Z,7.6
2022-12-15T05:50:00.467Z,7.6
2022-12-15T05:51:00.478Z,7.6
2022-12-15T05:52:00.423Z,7.6
2022-12-15T05:53:00.481Z,7.6
2022-12-15T05:54:00.440Z,7.6
2022-12-15T05:55:00.588Z,7.6
2022-12-15T05:56:00.449Z,7.6
2022-12-15T05:57:00.461Z,7.6
2022-12-15T05:58:00.449Z,7.6
2022-12-15T05:59:00.424Z,7.6
2022-12-15T06:00:00.654Z,7.6
2022-12-15T06:01:00.748Z,7.6
2022-12-15T06:02:00.561Z,7.6
2022-12-15T06:03:00.601Z,7.6
2022-12-15T06:04:00.498Z,7.5
2022-12-15T06:05:00.686Z,7.5
2022-12-15T06:06:00.449Z,7.5
2022-12-15T06:07:00.789Z,7.5
2022-12-15T06:08:00.496Z,7.4
2022-12-15T06:09:00.505Z,7.3
2022-12-15T06:10:00.448Z,7.3
2022-12-15T06:11:00.455Z,7.2
2022-12-15T06:12:00.424Z,7.2
2022-12-15T06:13:00.639Z,7.2
2022-12-15T06:14:00.481Z,7.2
2022-12-15T06:15:00.455Z,7.2
2022-12-15T06:16:00.714Z,7.2
2022-12-15T06:17:00.544Z,7.2
2022-12-15T06:18:00.455Z,7.3
2022-12-15T06:19:00.707Z,7.3
2022-12-15T06:20:00.419Z,7.3
2022-12-15T06:21:00.422Z,7.3
2022-12-15T06:22:00.432Z,7.3
2022-12-15T06:23:00.460Z,7.4
2022-12-15T06:24:00.452Z,7.4
2022-12-15T06:25:00.590Z,7.5
2022-12-15T06:26:00.425Z,7.6
2022-12-15T06:27:00.449Z,7.7
2022-12-15T06:28:01.983Z,7.7
2022-12-15T06:29:00.431Z,7.7
2022-12-15T06:30:00.482Z,7.6
2022-12-15T06:31:00.680Z,7.6
2022-12-15T06:32:00.436Z,7.6
2022-12-15T06:33:00.463Z,7.5
2022-12-15T06:34:02.273Z,7.4
2022-12-15T06:35:00.451Z,7.3
2022-12-15T06:36:00.474Z,7.3
2022-12-15T06:37:00.589Z,7.3
2022-12-15T06:38:00.487Z,7.3
2022-12-15T06:39:00.556Z,7.3
2022-12-15T06:40:00.485Z,7.3
2022-12-15T06:41:00.490Z,7.3
2022-12-15T06:42:00.529Z,7.2
2022-12-15T06:43:00.687Z,7.2
2022-12-15T06:44:00.536Z,7.2
2022-12-15T06:45:00.533Z,7.2
2022-12-15T06:46:00.588Z,7.1
2022-12-15T06:47:00.601Z,7.1
2022-12-15T06:48:01.764Z,7.2
2022-12-15T06:49:00.696Z,7.2
2022-12-15T06:50:00.449Z,7.2
2022-12-15T06:51:00.552Z,7.2
2022-12-15T06:52:00.480Z,7.2
2022-12-15T06:53:00.426Z,7.3
2022-12-15T06:54:00.420Z,7.4
2022-12-15T06:55:00.715Z,7.5
2022-12-15T06:56:00.425Z,7.5
2022-12-15T06:57:00.434Z,7.5
2022-12-15T06:58:00.455Z,7.6
2022-12-15T06:59:00.454Z,7.6
2022-12-15T07:00:00.418Z,7.7
2022-12-15T07:01:00.614Z,7.7
2022-12-15T07:02:00.681Z,7.8
2022-12-15T07:03:00.679Z,7.8
2022-12-15T07:04:00.722Z,7.8
2022-12-15T07:05:00.486Z,7.8
2022-12-15T07:06:00.452Z,7.8
2022-12-15T07:07:00.661Z,7.9
2022-12-15T07:08:00.459Z,8.0
2022-12-15T07:09:00.473Z,8.1
2022-12-15T07:10:00.489Z,8.1
2022-12-15T07:11:00.465Z,8.1
2022-12-15T07:12:00.484Z,8.2
2022-12-15T07:13:00.680Z,8.3
2022-12-15T07:14:00.421Z,8.3
2022-12-15T07:15:00.485Z,8.4
2022-12-15T07:16:00.682Z,8.5
2022-12-15T07:17:00.609Z,8.7
2022-12-15T07:18:00.450Z,8.7
2022-12-15T07:19:00.559Z,8.8
2022-12-15T07:20:00.488Z,8.9
2022-12-15T07:21:00.484Z,9.0
2022-12-15T07:22:00.503Z,9.0
2022-12-15T07:23:00.454Z,9.0
2022-12-15T07:24:01.488Z,9.1
2022-12-15T07:25:00.634Z,9.1
2022-12-15T07:26:00.506Z,9.1
2022-12-15T07:27:00.460Z,9.0
2022-12-15T07:28:00.546Z,9.0
2022-12-15T07:29:00.506Z,8.9
2022-12-15T07:30:00.545Z,8.9
2022-12-15T07:31:00.821Z,8.8
2022-12-15T07:32:00.705Z,8.8
2022-12-15T07:33:00.422Z,8.8
2022-12-15T07:34:00.424Z,8.7
2022-12-15T07:35:00.483Z,8.7
2022-12-15T07:36:00.413Z,8.7
2022-12-15T07:37:00.625Z,8.8
2022-12-15T07:38:00.479Z,8.9
2022-12-15T07:39:00.488Z,9.0
2022-12-15T07:40:00.445Z,9.0
2022-12-15T07:41:00.426Z,9.1
2022-12-15T07:42:00.471Z,9.2
2022-12-15T07:43:00.745Z,9.3
2022-12-15T07:44:00.418Z,9.5
2022-12-15T07:45:00.445Z,9.6
2022-12-15T07:46:00.542Z,9.7
2022-12-15T07:47:00.547Z,9.7
2022-12-15T07:48:00.534Z,9.8
2022-12-15T07:49:00.588Z,9.8
2022-12-15T07:50:00.474Z,9.9
2022-12-15T07:51:08.290Z,10.0
2022-12-15T07:52:00.427Z,10.0
2022-12-15T07:53:00.464Z,10.1
2022-12-15T07:54:00.452Z,10.2
2022-12-15T07:55:00.607Z,10.3
2022-12-15T07:56:07.416Z,10.3
2022-12-15T07:57:00.450Z,10.4
2022-12-15T07:58:00.484Z,10.4
2022-12-15T07:59:00.455Z,10.4
2022-12-15T08:00:00.432Z,10.3
2022-12-15T08:01:00.743Z,10.3
2022-12-15T08:02:00.671Z,10.3
2022-12-15T08:03:00.712Z,10.3
2022-12-15T08:04:00.501Z,10.3
2022-12-15T08:05:00.506Z,10.3
2022-12-15T08:06:04.002Z,10.3
2022-12-15T08:07:00.650Z,10.3
2022-12-15T08:08:00.495Z,10.3
2022-12-15T08:09:00.502Z,10.2
2022-12-15T08:10:00.527Z,10.0
2022-12-15T08:11:00.779Z,9.9
2022-12-15T08:12:00.464Z,9.8
2022-12-15T08:13:00.663Z,9.8
2022-12-15T08:14:03.433Z,9.8
2022-12-15T08:15:00.465Z,9.7
2022-12-15T08:16:00.616Z,9.7
2022-12-15T08:17:00.625Z,9.6
2022-12-15T08:18:00.615Z,9.6
2022-12-15T08:19:00.794Z,9.6
2022-12-15T08:20:04.788Z,9.6
2022-12-15T08:21:00.458Z,9.6
2022-12-15T08:22:00.427Z,9.7
2022-12-15T08:23:00.454Z,9.7
2022-12-15T08:24:00.419Z,9.8
2022-12-15T08:25:00.749Z,9.8
2022-12-15T08:26:00.416Z,9.8
2022-12-15T08:27:00.468Z,9.8
2022-12-15T08:28:00.463Z,9.8
2022-12-15T08:29:17.248Z,9.8
2022-12-15T08:30:00.479Z,9.8
2022-12-15T08:31:00.638Z,9.8
2022-12-15T08:32:00.540Z,9.8
2022-12-15T08:33:00.704Z,9.7
2022-12-15T08:34:00.881Z,9.7
2022-12-15T08:35:00.423Z,9.6
2022-12-15T08:36:00.446Z,9.6
2022-12-15T08:37:00.551Z,9.6
2022-12-15T08:38:05.226Z,9.6
2022-12-15T08:39:00.427Z,9.6
2022-12-15T08:40:00.478Z,9.6
2022-12-15T08:41:00.456Z,9.5
2022-12-15T08:42:00.454Z,9.5
2022-12-15T08:43:00.646Z,9.6
2022-12-15T08:44:00.465Z,9.6
2022-12-15T08:45:00.416Z,9.6
2022-12-15T08:46:00.553Z,9.7
2022-12-15T08:47:00.474Z,9.9
2022-12-15T08:48:00.448Z,10.0
2022-12-15T08:49:00.648Z,10.2
2022-12-15T08:50:00.533Z,10.3
2022-12-15T08:51:00.479Z,10.5
2022-12-15T08:52:00.450Z,10.6
2022-12-15T08:53:29.627Z,10.7
2022-12-15T08:54:00.455Z,10.7
2022-12-15T08:55:00.604Z,10.8
2022-12-15T08:56:00.513Z,11.0
2022-12-15T08:57:00.532Z,11.1
2022-12-15T08:58:00.501Z,11.6
2022-12-15T08:59:00.503Z,11.8
2022-12-15T09:00:00.445Z,11.9
2022-12-15T09:01:00.716Z,12.2
2022-12-15T09:02:00.624Z,12.7
2022-12-15T09:03:00.465Z,12.9
2022-12-15T09:04:00.677Z,13.2
2022-12-15T09:05:00.448Z,14.4
2022-12-15T09:06:00.415Z,13.7
2022-12-15T09:07:00.681Z,13.1
2022-12-15T09:08:06.197Z,12.8
2022-12-15T09:09:00.414Z,12.7
2022-12-15T09:10:00.420Z,12.8
2022-12-15T09:11:00.448Z,13.1
2022-12-15T09:12:00.489Z,13.8
2022-12-15T09:13:00.596Z,14.0
2022-12-15T09:14:00.478Z,13.8
2022-12-15T09:15:00.477Z,13.6
2022-12-15T09:16:09.282Z,13.8
2022-12-15T09:17:00.472Z,15.2
2022-12-15T09:18:00.454Z,16.4
2022-12-15T09:19:00.583Z,16.0
2022-12-15T09:20:00.442Z,17.0
2022-12-15T09:21:00.479Z,17.5
2022-12-15T09:22:00.799Z,17.0
2022-12-15T09:23:00.931Z,15.8
2022-12-15T09:24:00.777Z,15.1
2022-12-15T09:25:00.791Z,14.8
2022-12-15T09:26:00.526Z,14.7
2022-12-15T09:27:00.620Z,16.0
2022-12-15T09:28:00.442Z,16.6
2022-12-15T09:30:00.889Z,15.9
2022-12-15T09:31:00.813Z,15.3
2022-12-15T09:32:00.731Z,14.9
2022-12-15T09:33:00.689Z,15.0
2022-12-15T09:34:00.919Z,14.5
2022-12-15T09:35:00.727Z,13.8
2022-12-15T09:36:00.896Z,13.2
2022-12-15T09:37:00.719Z,12.9
2022-12-15T09:38:00.740Z,12.7
2022-12-15T09:39:00.791Z,12.4
2022-12-15T09:40:00.817Z,12.1
2022-12-15T09:41:00.711Z,11.9
2022-12-15T09:42:00.891Z,11.6
2022-12-15T09:43:33.022Z,11.4
2022-12-15T09:44:00.689Z,11.4
2022-12-15T09:45:00.746Z,11.4
2022-12-15T09:46:00.801Z,11.4
2022-12-15T09:47:00.715Z,11.4
2022-12-15T09:48:00.822Z,11.3
2022-12-15T09:49:00.870Z,11.3
2022-12-15T09:50:00.740Z,11.2
2022-12-15T09:51:00.720Z,11.2
2022-12-15T09:52:01.068Z,11.3
2022-12-15T09:53:00.800Z,11.3
2022-12-15T09:54:01.502Z,11.3
2022-12-15T09:55:00.766Z,11.2
2022-12-15T09:56:00.716Z,11.3
2022-12-15T09:57:00.704Z,11.2
2022-12-15T09:58:01.465Z,11.1
2022-12-15T09:59:00.693Z,11.1
2022-12-15T10:00:00.911Z,11.1
2022-12-15T10:01:00.702Z,11.1
2022-12-15T10:02:00.811Z,11.0
2022-12-15T10:03:01.019Z,10.9
2022-12-15T10:04:01.058Z,10.8
2022-12-15T10:05:01.007Z,10.8
2022-12-15T10:06:17.119Z,10.7
2022-12-15T10:07:00.732Z,10.7
2022-12-15T10:08:00.728Z,10.6
2022-12-15T10:09:00.822Z,10.5
2022-12-15T10:10:00.813Z,10.5
2022-12-15T10:11:00.743Z,10.5
2022-12-15T10:12:00.907Z,10.6
2022-12-15T10:13:02.498Z,10.6
2022-12-15T10:14:00.790Z,10.5
2022-12-15T10:15:00.738Z,10.5
2022-12-15T10:16:00.800Z,10.6
2022-12-15T10:17:00.735Z,10.5
2022-12-15T10:18:00.889Z,10.5
2022-12-15T10:19:01.889Z,10.5
2022-12-15T10:20:00.862Z,10.4
2022-12-15T10:21:00.721Z,10.4
2022-12-15T10:22:00.713Z,10.3
2022-12-15T10:23:00.685Z,10.3
2022-12-15T10:24:01.008Z,10.3
2022-12-15T10:25:09.649Z,10.3
2022-12-15T10:26:00.688Z,10.3
2022-12-15T10:27:00.712Z,10.2
2022-12-15T10:28:00.743Z,10.2
2022-12-15T10:29:00.688Z,10.2
2022-12-15T10:30:01.030Z,10.2
2022-12-15T10:31:00.863Z,10.2
2022-12-15T10:32:00.779Z,10.2
2022-12-15T10:33:00.838Z,10.2
2022-12-15T10:34:00.839Z,10.2
2022-12-15T10:35:01.000Z,10.2
2022-12-15T10:36:00.877Z,10.2
2022-12-15T10:37:00.803Z,10.3
2022-12-15T10:38:00.728Z,10.3
2022-12-15T10:39:00.723Z,10.4
2022-12-15T10:40:00.746Z,10.4
2022-12-15T10:41:00.748Z,10.5
2022-12-15T10:42:00.840Z,10.5
2022-12-15T10:43:00.718Z,10.6
2022-12-15T10:44:00.722Z,10.6
2022-12-15T10:45:00.716Z,10.5
2022-12-15T10:46:00.762Z,10.5
2022-12-15T10:47:00.689Z,10.5
2022-12-15T10:48:00.887Z,10.5
2022-12-15T10:49:00.722Z,10.5
2022-12-15T10:50:00.797Z,10.6
2022-12-15T10:51:00.737Z,10.6
2022-12-15T10:52:00.780Z,10.6
2022-12-15T10:53:00.791Z,10.6
2022-12-15T10:54:00.891Z,10.6
2022-12-15T10:55:00.708Z,10.5
2022-12-15T10:56:00.791Z,11.4
2022-12-15T10:57:00.736Z,12.4
2022-12-15T10:58:00.777Z,14.1
2022-12-15T10:59:00.796Z,15.1
2022-12-15T11:00:00.952Z,15.3
2022-12-15T11:01:00.749Z,14.5
2022-12-15T11:02:00.915Z,13.6
2022-12-15T11:03:01.025Z,13.1
2022-12-15T11:04:01.009Z,12.8
2022-12-15T11:05:00.823Z,12.4
2022-12-15T11:06:00.992Z,12.0
2022-12-15T11:07:00.743Z,11.7
2022-12-15T11:08:00.694Z,11.4
2022-12-15T11:09:00.687Z,11.1
2022-12-15T11:10:00.720Z,10.9
2022-12-15T11:11:00.748Z,10.6
2022-12-15T11:12:00.819Z,10.4
2022-12-15T11:13:00.726Z,10.2
2022-12-15T11:14:00.715Z,10.1
2022-12-15T11:15:00.718Z,10.0
2022-12-15T11:16:00.743Z,9.9
2022-12-15T11:17:00.719Z,9.8
2022-12-15T11:18:00.847Z,9.7
2022-12-15T11:19:00.710Z,9.6
2022-12-15T11:20:03.049Z,9.5
2022-12-15T11:21:00.912Z,9.5
2022-12-15T11:22:00.773Z,9.4
2022-12-15T11:23:00.700Z,9.3
2022-12-15T11:24:00.861Z,9.3
2022-12-15T11:25:00.745Z,9.3
2022-12-15T11:26:06.705Z,9.2
2022-12-15T11:27:00.789Z,9.1
2022-12-15T11:28:00.710Z,9.0
2022-12-15T11:29:00.692Z,8.9
2022-12-15T11:30:00.871Z,8.9
2022-12-15T11:31:00.683Z,8.8
2022-12-15T11:32:06.776Z,8.8
2022-12-15T11:33:00.809Z,8.8
2022-12-15T11:34:00.687Z,8.8
2022-12-15T11:35:00.711Z,8.8
2022-12-15T11:36:00.891Z,8.8
2022-12-15T11:37:00.880Z,8.8
2022-12-15T11:38:00.894Z,8.8
2022-12-15T11:39:00.862Z,8.8
2022-12-15T11:40:00.765Z,8.8
2022-12-15T11:41:00.715Z,8.8
2022-12-15T11:42:00.865Z,8.9
2022-12-15T11:43:00.718Z,8.9
2022-12-15T11:44:04.319Z,9.0
2022-12-15T11:45:00.745Z,9.0
2022-12-15T11:46:00.752Z,9.0
2022-12-15T11:47:00.721Z,9.0
2022-12-15T11:48:00.833Z,9.0
2022-12-15T11:49:00.718Z,9.0
2022-12-15T11:50:00.692Z,9.1
2022-12-15T11:51:00.726Z,9.1
2022-12-15T11:52:00.711Z,9.2
2022-12-15T11:53:00.923Z,9.2
2022-12-15T11:54:00.880Z,9.3
2022-12-15T11:55:00.762Z,9.3
2022-12-15T11:56:00.781Z,9.4
2022-12-15T11:57:00.718Z,9.4
2022-12-15T11:58:00.826Z,9.4
2022-12-15T11:59:00.722Z,9.5
2022-12-15T12:00:01.066Z,9.5
2022-12-15T12:01:00.766Z,9.5
2022-12-15T12:03:00.887Z,9.5
2022-12-15T12:04:00.815Z,9.5
2022-12-15T12:05:00.699Z,9.5
2022-12-15T12:06:01.155Z,9.5
2022-12-15T12:07:00.685Z,9.5
2022-12-15T12:08:01.004Z,9.5
2022-12-15T12:09:00.750Z,9.5
2022-12-15T12:10:00.739Z,9.5
2022-12-15T12:11:00.746Z,9.5
2022-12-15T12:12:00.807Z,9.4
2022-12-15T12:13:00.812Z,9.4
2022-12-15T12:14:00.720Z,9.4
2022-12-15T12:15:00.722Z,9.3
2022-12-15T12:16:00.716Z,9.3
2022-12-15T12:17:00.717Z,9.2
2022-12-15T12:18:00.883Z,9.2
2022-12-15T12:19:00.823Z,9.1
2022-12-15T12:20:00.718Z,9.1
2022-12-15T12:21:00.797Z,9.0
2022-12-15T12:22:00.782Z,9.0
2022-12-15T12:23:00.894Z,9.0
2022-12-15T12:24:00.867Z,9.0
2022-12-15T12:25:00.725Z,9.0
2022-12-15T12:26:03.265Z,8.9
2022-12-15T12:27:00.741Z,8.9
2022-12-15T12:28:00.760Z,8.9
2022-12-15T12:29:00.760Z,8.8
2022-12-15T12:30:01.155Z,8.8
2022-12-15T12:31:00.741Z,8.8
2022-12-15T12:32:04.931Z,8.7
2022-12-15T12:33:00.714Z,8.7
2022-12-15T12:34:00.694Z,8.7
2022-12-15T12:35:31.676Z,8.7
2022-12-15T12:36:00.835Z,8.7
2022-12-15T12:37:00.763Z,8.7
2022-12-15T12:38:03.221Z,8.7
2022-12-15T12:39:00.709Z,8.7
2022-12-15T12:40:00.712Z,8.7
2022-12-15T12:41:00.712Z,8.6
2022-12-15T12:42:00.835Z,8.6
2022-12-15T12:43:00.720Z,8.6
2022-12-15T12:44:00.718Z,8.7
2022-12-15T12:45:00.717Z,8.6
2022-12-15T12:46:00.709Z,8.6
2022-12-15T12:47:00.721Z,8.6
2022-12-15T12:48:00.934Z,8.6
2022-12-15T12:49:00.765Z,8.5
2022-12-15T12:50:00.744Z,8.5
2022-12-15T12:51:00.788Z,8.5
2022-12-15T12:52:00.720Z,8.5
2022-12-15T12:53:00.931Z,8.5
2022-12-15T12:54:00.832Z,8.6
2022-12-15T12:55:00.756Z,8.6
2022-12-15T12:56:00.754Z,8.5
2022-12-15T12:57:00.694Z,8.5
2022-12-15T12:58:00.744Z,8.4
2022-12-15T12:59:00.771Z,8.4
2022-12-15T13:00:00.952Z,8.4
2022-12-15T13:01:00.918Z,8.4
2022-12-15T13:02:00.834Z,8.3
2022-12-15T13:03:00.782Z,8.3
2022-12-15T13:04:00.724Z,8.3
2022-12-15T13:05:00.746Z,8.3
2022-12-15T13:06:00.949Z,8.3
2022-12-15T13:07:00.729Z,8.3
2022-12-15T13:08:00.811Z,8.3
2022-12-15T13:09:00.707Z,8.3
2022-12-15T13:10:00.748Z,8.3
2022-12-15T13:11:00.703Z,8.3
2022-12-15T13:12:03.195Z,8.4
2022-12-15T13:13:00.685Z,8.4
2022-12-15T13:14:00.743Z,8.4
2022-12-15T13:15:00.746Z,8.4
2022-12-15T13:16:00.746Z,8.4
2022-12-15T13:17:25.329Z,8.4
2022-12-15T13:18:00.928Z,8.4
2022-12-15T13:19:00.781Z,8.4
2022-12-15T13:20:00.796Z,8.4
2022-12-15T13:21:00.717Z,8.4
2022-12-15T13:22:00.743Z,8.4
2022-12-15T13:23:00.880Z,8.4
2022-12-15T13:24:00.838Z,8.4
2022-12-15T13:25:00.783Z,8.4
2022-12-15T13:26:00.791Z,8.4
2022-12-15T13:27:00.846Z,8.4
2022-12-15T13:28:00.736Z,8.4
2022-12-15T13:29:00.754Z,8.5
2022-12-15T13:30:00.894Z,8.4
2022-12-15T13:31:04.678Z,8.4
2022-12-15T13:32:00.854Z,8.5
2022-12-15T13:33:00.824Z,8.5
2022-12-15T13:34:00.771Z,8.5
2022-12-15T13:35:00.794Z,8.5
2022-12-15T13:36:00.877Z,8.5
2022-12-15T13:37:00.732Z,8.5
2022-12-15T13:38:00.768Z,8.5
2022-12-15T13:39:00.900Z,8.5
2022-12-15T13:40:00.736Z,8.5
2022-12-15T13:41:00.693Z,8.5
2022-12-15T13:42:32.210Z,8.5